sensor_id;sensor_type;location;lat;lon;timestamp;pressure;altitude;pressure_sealevel;temperature;humidity
37892;BME280;45797;47.466;9.486;2023-09-12T00:01:52;95563.06;;;21.39;58.29
37892;BME280;45797;47.466;9.486;2023-09-12T00:07:04;95563.13;;;21.31;58.67
37892;BME280;45797;47.466;9.486;2023-09-12T00:12:04;95566.19;;;21.28;58.65
37892;BME280;45797;47.466;9.486;2023-09-12T00:17:06;95560.19;;;21.26;59.21
37892;BME280;45797;47.466;9.486;2023-09-12T00:22:07;95548.41;;;21.20;59.15
37892;BME280;45797;47.466;9.486;2023-09-12T00:27:27;95556.31;;;21.14;59.19
37892;BME280;45797;47.466;9.486;2023-09-12T00:32:28;95549.47;;;21.11;59.35
37892;BME280;45797;47.466;9.486;2023-09-12T00:37:30;95543.69;;;21.07;59.37
37892;BME280;45797;47.466;9.486;2023-09-12T00:42:50;95543.78;;;20.99;59.20
37892;BME280;45797;47.466;9.486;2023-09-12T00:47:51;95535.16;;;20.97;59.42
37892;BME280;45797;47.466;9.486;2023-09-12T00:52:59;95533.19;;;20.91;59.85
37892;BME280;45797;47.466;9.486;2023-09-12T00:58:01;95534.22;;;20.90;59.87
37892;BME280;45797;47.466;9.486;2023-09-12T01:03:02;95543.59;;;20.86;60.14
37892;BME280;45797;47.466;9.486;2023-09-12T01:08:04;95546.44;;;20.85;60.01
37892;BME280;45797;47.466;9.486;2023-09-12T01:13:05;95544.75;;;20.83;60.27
37892;BME280;45797;47.466;9.486;2023-09-12T01:18:07;95546.94;;;20.80;60.26
37892;BME280;45797;47.466;9.486;2023-09-12T01:28:42;95562.28;;;20.78;60.41
37892;BME280;45797;47.466;9.486;2023-09-12T01:33:45;95567.94;;;20.75;60.66
37892;BME280;45797;47.466;9.486;2023-09-12T01:38:55;95577.31;;;20.71;60.58
37892;BME280;45797;47.466;9.486;2023-09-12T01:43:56;95577.03;;;20.66;60.73
37892;BME280;45797;47.466;9.486;2023-09-12T01:49:05;95565.06;;;20.62;60.77
37892;BME280;45797;47.466;9.486;2023-09-12T01:54:16;95571.78;;;20.58;60.62
37892;BME280;45797;47.466;9.486;2023-09-12T01:59:23;95574.13;;;20.52;60.83
37892;BME280;45797;47.466;9.486;2023-09-12T02:04:26;95566.31;;;20.51;61.43
37892;BME280;45797;47.466;9.486;2023-09-12T02:09:36;95570.50;;;20.45;61.19
37892;BME280;45797;47.466;9.486;2023-09-12T02:14:37;95577.03;;;20.43;61.24
37892;BME280;45797;47.466;9.486;2023-09-12T02:19:38;95579.19;;;20.39;61.48
37892;BME280;45797;47.466;9.486;2023-09-12T02:24:44;95583.84;;;20.37;61.28
37892;BME280;45797;47.466;9.486;2023-09-12T02:29:46;95578.69;;;20.36;61.95
37892;BME280;45797;47.466;9.486;2023-09-12T02:34:48;95585.19;;;20.33;61.78
37892;BME280;45797;47.466;9.486;2023-09-12T02:39:49;95581.25;;;20.29;61.88
37892;BME280;45797;47.466;9.486;2023-09-12T02:44:59;95583.22;;;20.27;61.91
37892;BME280;45797;47.466;9.486;2023-09-12T02:50:03;95582.41;;;20.26;62.17
37892;BME280;45797;47.466;9.486;2023-09-12T02:55:07;95581.75;;;20.24;62.35
37892;BME280;45797;47.466;9.486;2023-09-12T03:00:11;95574.78;;;20.23;62.07
37892;BME280;45797;47.466;9.486;2023-09-12T03:05:11;95574.31;;;20.20;62.42
37892;BME280;45797;47.466;9.486;2023-09-12T03:10:19;95577.31;;;20.17;62.55
37892;BME280;45797;47.466;9.486;2023-09-12T03:15:27;95584.00;;;20.13;62.58
37892;BME280;45797;47.466;9.486;2023-09-12T03:20:28;95577.19;;;20.10;62.85
37892;BME280;45797;47.466;9.486;2023-09-12T03:25:38;95587.34;;;20.07;62.69
37892;BME280;45797;47.466;9.486;2023-09-12T03:30:40;95571.56;;;20.05;63.02
37892;BME280;45797;47.466;9.486;2023-09-12T03:35:48;95570.09;;;20.03;63.04
37892;BME280;45797;47.466;9.486;2023-09-12T03:40:49;95575.59;;;20.01;63.18
37892;BME280;45797;47.466;9.486;2023-09-12T03:45:52;95574.06;;;19.98;63.37
37892;BME280;45797;47.466;9.486;2023-09-12T03:50:53;95570.78;;;19.96;63.26
37892;BME280;45797;47.466;9.486;2023-09-12T03:56:08;95581.28;;;19.90;63.55
37892;BME280;45797;47.466;9.486;2023-09-12T04:01:21;95588.41;;;19.89;63.64
37892;BME280;45797;47.466;9.486;2023-09-12T04:11:47;95576.47;;;19.85;63.99
37892;BME280;45797;47.466;9.486;2023-09-12T04:16:55;95581.97;;;19.84;63.79
37892;BME280;45797;47.466;9.486;2023-09-12T04:21:56;95578.50;;;19.83;63.52
37892;BME280;45797;47.466;9.486;2023-09-12T04:27:15;95573.84;;;19.77;64.02
37892;BME280;45797;47.466;9.486;2023-09-12T04:32:17;95572.84;;;19.78;63.83
37892;BME280;45797;47.466;9.486;2023-09-12T04:37:38;95578.69;;;19.74;64.06
37892;BME280;45797;47.466;9.486;2023-09-12T04:42:39;95580.34;;;19.75;64.24
37892;BME280;45797;47.466;9.486;2023-09-12T04:47:56;95572.88;;;19.70;64.30
37892;BME280;45797;47.466;9.486;2023-09-12T04:53:06;95580.03;;;19.69;64.16
37892;BME280;45797;47.466;9.486;2023-09-12T04:58:09;95582.53;;;19.71;64.26
37892;BME280;45797;47.466;9.486;2023-09-12T05:03:11;95586.84;;;19.72;64.19
37892;BME280;45797;47.466;9.486;2023-09-12T05:08:11;95590.50;;;19.71;64.42
37892;BME280;45797;47.466;9.486;2023-09-12T05:13:12;95584.19;;;19.72;64.20
37892;BME280;45797;47.466;9.486;2023-09-12T05:18:12;95587.50;;;19.74;64.53
37892;BME280;45797;47.466;9.486;2023-09-12T05:23:14;95595.13;;;19.77;64.47
37892;BME280;45797;47.466;9.486;2023-09-12T05:28:14;95591.13;;;19.81;64.34
37892;BME280;45797;47.466;9.486;2023-09-12T05:33:23;95597.75;;;19.85;64.30
37892;BME280;45797;47.466;9.486;2023-09-12T05:38:26;95601.38;;;19.92;64.84
37892;BME280;45797;47.466;9.486;2023-09-12T05:43:29;95607.66;;;20.00;64.71
37892;BME280;45797;47.466;9.486;2023-09-12T05:48:31;95607.78;;;20.06;64.50
37892;BME280;45797;47.466;9.486;2023-09-12T05:53:31;95608.94;;;20.12;64.34
37892;BME280;45797;47.466;9.486;2023-09-12T05:58:33;95609.91;;;20.19;64.37
37892;BME280;45797;47.466;9.486;2023-09-12T06:03:37;95613.50;;;20.26;64.31
37892;BME280;45797;47.466;9.486;2023-09-12T06:08:39;95614.47;;;20.33;64.13
37892;BME280;45797;47.466;9.486;2023-09-12T06:13:39;95613.59;;;20.41;63.99
37892;BME280;45797;47.466;9.486;2023-09-12T06:18:41;95623.88;;;20.52;64.65
37892;BME280;45797;47.466;9.486;2023-09-12T06:23:41;95631.63;;;20.62;64.39
37892;BME280;45797;47.466;9.486;2023-09-12T06:28:42;95622.38;;;20.72;64.36
37892;BME280;45797;47.466;9.486;2023-09-12T06:33:43;95623.66;;;20.85;63.71
37892;BME280;45797;47.466;9.486;2023-09-12T06:38:44;95616.72;;;20.98;63.81
37892;BME280;45797;47.466;9.486;2023-09-12T06:43:54;95613.91;;;21.15;63.33
37892;BME280;45797;47.466;9.486;2023-09-12T06:48:57;95626.75;;;21.34;63.28
37892;BME280;45797;47.466;9.486;2023-09-12T06:53:59;95628.06;;;21.53;63.05
37892;BME280;45797;47.466;9.486;2023-09-12T06:58:59;95631.66;;;21.75;62.27
37892;BME280;45797;47.466;9.486;2023-09-12T07:03:59;95622.38;;;22.00;62.00
37892;BME280;45797;47.466;9.486;2023-09-12T07:09:03;95637.06;;;22.26;61.22
37892;BME280;45797;47.466;9.486;2023-09-12T07:14:04;95628.75;;;22.50;60.94
37892;BME280;45797;47.466;9.486;2023-09-12T07:19:05;95631.81;;;22.68;60.42
37892;BME280;45797;47.466;9.486;2023-09-12T07:24:06;95639.63;;;22.85;60.42
37892;BME280;45797;47.466;9.486;2023-09-12T07:29:08;95636.69;;;23.01;60.03
37892;BME280;45797;47.466;9.486;2023-09-12T07:34:09;95633.13;;;23.15;59.96
37892;BME280;45797;47.466;9.486;2023-09-12T07:39:11;95639.66;;;23.34;59.68
37892;BME280;45797;47.466;9.486;2023-09-12T07:44:18;95630.50;;;23.50;59.63
37892;BME280;45797;47.466;9.486;2023-09-12T07:49:26;95634.56;;;23.67;59.20
37892;BME280;45797;47.466;9.486;2023-09-12T07:54:28;95640.81;;;23.74;59.15
37892;BME280;45797;47.466;9.486;2023-09-12T07:59:30;95639.69;;;23.62;59.38
37892;BME280;45797;47.466;9.486;2023-09-12T08:04:34;95651.06;;;23.49;59.65
37892;BME280;45797;47.466;9.486;2023-09-12T08:09:54;95653.03;;;23.34;60.90
37892;BME280;45797;47.466;9.486;2023-09-12T08:14:55;95655.22;;;23.24;60.99
37892;BME280;45797;47.466;9.486;2023-09-12T08:20:08;95654.13;;;23.18;60.90
37892;BME280;45797;47.466;9.486;2023-09-12T08:25:12;95649.78;;;23.17;61.21
37892;BME280;45797;47.466;9.486;2023-09-12T08:30:20;95647.50;;;23.14;61.38
37892;BME280;45797;47.466;9.486;2023-09-12T08:35:22;95656.16;;;23.16;61.90
37892;BME280;45797;47.466;9.486;2023-09-12T08:40:23;95665.63;;;23.19;61.62
37892;BME280;45797;47.466;9.486;2023-09-12T08:45:25;95664.56;;;23.13;62.23
37892;BME280;45797;47.466;9.486;2023-09-12T08:50:35;95670.34;;;23.17;61.96
37892;BME280;45797;47.466;9.486;2023-09-12T08:55:45;95662.00;;;23.26;61.85
37892;BME280;45797;47.466;9.486;2023-09-12T09:00:47;95653.09;;;23.41;61.86
37892;BME280;45797;47.466;9.486;2023-09-12T09:05:48;95658.53;;;23.54;61.50
37892;BME280;45797;47.466;9.486;2023-09-12T09:10:57;95651.22;;;23.62;61.72
37892;BME280;45797;47.466;9.486;2023-09-12T09:16:16;95664.88;;;23.74;61.61
37892;BME280;45797;47.466;9.486;2023-09-12T09:21:19;95655.47;;;23.85;60.87
37892;BME280;45797;47.466;9.486;2023-09-12T09:26:20;95658.63;;;23.95;60.50
37892;BME280;45797;47.466;9.486;2023-09-12T09:31:22;95649.81;;;24.01;60.88
37892;BME280;45797;47.466;9.486;2023-09-12T09:36:22;95643.09;;;24.12;60.06
37892;BME280;45797;47.466;9.486;2023-09-12T09:41:29;95642.31;;;24.18;60.18
37892;BME280;45797;47.466;9.486;2023-09-12T09:46:29;95627.31;;;24.30;60.08
37892;BME280;45797;47.466;9.486;2023-09-12T09:51:31;95618.75;;;24.48;59.87
37892;BME280;45797;47.466;9.486;2023-09-12T09:56:45;95617.56;;;24.64;59.81
37892;BME280;45797;47.466;9.486;2023-09-12T10:01:48;95620.88;;;24.72;59.34
37892;BME280;45797;47.466;9.486;2023-09-12T10:06:52;95605.63;;;24.79;59.45
37892;BME280;45797;47.466;9.486;2023-09-12T10:11:55;95601.31;;;24.92;59.26
37892;BME280;45797;47.466;9.486;2023-09-12T10:17:02;95600.28;;;24.99;58.95
37892;BME280;45797;47.466;9.486;2023-09-12T10:27:31;95601.19;;;24.32;61.37
37892;BME280;45797;47.466;9.486;2023-09-12T10:32:48;95594.56;;;23.87;63.19
37892;BME280;45797;47.466;9.486;2023-09-12T10:37:59;95593.66;;;23.73;63.37
37892;BME280;45797;47.466;9.486;2023-09-12T10:43:02;95591.00;;;23.73;63.54
37892;BME280;45797;47.466;9.486;2023-09-12T10:48:10;95595.66;;;23.64;63.92
37892;BME280;45797;47.466;9.486;2023-09-12T10:53:12;95589.06;;;23.60;63.96
37892;BME280;45797;47.466;9.486;2023-09-12T10:58:24;95590.53;;;23.63;63.66
37892;BME280;45797;47.466;9.486;2023-09-12T11:08:35;95574.84;;;23.94;63.23
37892;BME280;45797;47.466;9.486;2023-09-12T11:13:39;95565.84;;;24.15;62.80
37892;BME280;45797;47.466;9.486;2023-09-12T11:24:13;95568.88;;;24.54;61.82
37892;BME280;45797;47.466;9.486;2023-09-12T11:29:14;95560.06;;;24.79;61.22
37892;BME280;45797;47.466;9.486;2023-09-12T11:34:14;95558.84;;;24.95;60.82
37892;BME280;45797;47.466;9.486;2023-09-12T11:39:30;95540.72;;;25.11;60.49
37892;BME280;45797;47.466;9.486;2023-09-12T11:44:32;95537.44;;;25.22;60.45
37892;BME280;45797;47.466;9.486;2023-09-12T11:49:36;95543.81;;;25.34;59.98
37892;BME280;45797;47.466;9.486;2023-09-12T11:54:39;95529.75;;;25.45;59.88
37892;BME280;45797;47.466;9.486;2023-09-12T11:59:44;95526.84;;;25.53;59.56
37892;BME280;45797;47.466;9.486;2023-09-12T12:04:53;95531.56;;;25.64;59.34
37892;BME280;45797;47.466;9.486;2023-09-12T12:09:55;95524.75;;;25.75;59.24
37892;BME280;45797;47.466;9.486;2023-09-12T12:14:58;95525.94;;;25.86;58.39
37892;BME280;45797;47.466;9.486;2023-09-12T12:19:58;95518.25;;;25.96;58.48
37892;BME280;45797;47.466;9.486;2023-09-12T12:25:06;95522.56;;;26.04;57.97
37892;BME280;45797;47.466;9.486;2023-09-12T12:30:13;95517.53;;;26.20;57.61
37892;BME280;45797;47.466;9.486;2023-09-12T12:35:19;95515.38;;;26.42;56.88
37892;BME280;45797;47.466;9.486;2023-09-12T12:40:37;95513.78;;;26.66;56.61
37892;BME280;45797;47.466;9.486;2023-09-12T12:45:53;95500.06;;;26.74;56.59
37892;BME280;45797;47.466;9.486;2023-09-12T12:50:55;95488.16;;;26.89;55.74
37892;BME280;45797;47.466;9.486;2023-09-12T12:56:05;95494.06;;;27.04;55.63
37892;BME280;45797;47.466;9.486;2023-09-12T13:01:07;95496.34;;;27.25;54.94
37892;BME280;45797;47.466;9.486;2023-09-12T13:06:07;95495.84;;;27.35;54.81
37892;BME280;45797;47.466;9.486;2023-09-12T13:11:28;95496.59;;;27.67;54.40
37892;BME280;45797;47.466;9.486;2023-09-12T13:16:30;95489.59;;;27.96;53.83
37892;BME280;45797;47.466;9.486;2023-09-12T13:21:44;95479.53;;;28.03;53.63
37892;BME280;45797;47.466;9.486;2023-09-12T13:26:44;95482.84;;;28.05;53.67
37892;BME280;45797;47.466;9.486;2023-09-12T13:31:44;95492.06;;;27.79;54.38
37892;BME280;45797;47.466;9.486;2023-09-12T13:36:46;95492.53;;;27.15;56.25
37892;BME280;45797;47.466;9.486;2023-09-12T13:41:47;95491.13;;;26.81;57.30
37892;BME280;45797;47.466;9.486;2023-09-12T13:46:56;95495.88;;;26.54;58.14
37892;BME280;45797;47.466;9.486;2023-09-12T13:51:57;95499.91;;;26.31;58.63
37892;BME280;45797;47.466;9.486;2023-09-12T13:56:58;95493.81;;;26.11;59.14
37892;BME280;45797;47.466;9.486;2023-09-12T14:01:59;95496.63;;;25.91;59.41
37892;BME280;45797;47.466;9.486;2023-09-12T14:07:02;95495.06;;;25.70;59.81
37892;BME280;45797;47.466;9.486;2023-09-12T14:12:06;95495.09;;;25.50;60.23
37892;BME280;45797;47.466;9.486;2023-09-12T14:17:07;95512.44;;;25.34;61.28
37892;BME280;45797;47.466;9.486;2023-09-12T14:22:07;95528.97;;;25.18;61.38
37892;BME280;45797;47.466;9.486;2023-09-12T14:27:18;95566.91;;;25.09;61.77
37892;BME280;45797;47.466;9.486;2023-09-12T14:32:28;95572.44;;;25.00;62.07
37892;BME280;45797;47.466;9.486;2023-09-12T14:37:30;95582.16;;;24.88;62.42
37892;BME280;45797;47.466;9.486;2023-09-12T14:42:32;95594.47;;;24.69;62.72
37892;BME280;45797;47.466;9.486;2023-09-12T14:47:34;95596.28;;;24.49;62.62
37892;BME280;45797;47.466;9.486;2023-09-12T14:52:35;95602.59;;;24.28;63.13
37892;BME280;45797;47.466;9.486;2023-09-12T14:57:37;95618.53;;;24.02;63.39
37892;BME280;45797;47.466;9.486;2023-09-12T15:02:43;95653.84;;;23.34;64.46
37892;BME280;45797;47.466;9.486;2023-09-12T15:07:45;95686.44;;;22.66;66.18
37892;BME280;45797;47.466;9.486;2023-09-12T15:12:48;95693.13;;;22.26;67.13
37892;BME280;45797;47.466;9.486;2023-09-12T15:17:50;95698.53;;;22.03;67.45
37892;BME280;45797;47.466;9.486;2023-09-12T15:22:50;95687.03;;;21.87;67.93
37892;BME280;45797;47.466;9.486;2023-09-12T15:27:53;95654.94;;;21.81;67.56
37892;BME280;45797;47.466;9.486;2023-09-12T15:33:03;95617.13;;;21.77;67.70
37892;BME280;45797;47.466;9.486;2023-09-12T15:38:05;95595.78;;;21.77;68.08
37892;BME280;45797;47.466;9.486;2023-09-12T15:43:22;95585.66;;;21.87;67.21
37892;BME280;45797;47.466;9.486;2023-09-12T15:48:24;95553.91;;;22.07;67.54
37892;BME280;45797;47.466;9.486;2023-09-12T15:53:24;95531.88;;;22.56;66.29
37892;BME280;45797;47.466;9.486;2023-09-12T15:58:35;95485.22;;;23.36;64.36
37892;BME280;45797;47.466;9.486;2023-09-12T16:03:43;95461.72;;;23.66;63.57
37892;BME280;45797;47.466;9.486;2023-09-12T16:08:45;95452.91;;;23.72;63.44
37892;BME280;45797;47.466;9.486;2023-09-12T16:13:53;95463.69;;;23.99;63.22
37892;BME280;45797;47.466;9.486;2023-09-12T16:18:54;95453.50;;;24.35;61.80
37892;BME280;45797;47.466;9.486;2023-09-12T16:24:01;95467.31;;;24.78;61.04
37892;BME280;45797;47.466;9.486;2023-09-12T16:29:01;95482.75;;;24.96;60.49
37892;BME280;45797;47.466;9.486;2023-09-12T16:34:12;95495.75;;;24.66;61.04
37892;BME280;45797;47.466;9.486;2023-09-12T16:39:12;95495.84;;;24.25;61.93
37892;BME280;45797;47.466;9.486;2023-09-12T16:44:17;95498.03;;;23.95;63.01
37892;BME280;45797;47.466;9.486;2023-09-12T16:49:17;95511.16;;;23.77;63.65
37892;BME280;45797;47.466;9.486;2023-09-12T16:54:17;95519.53;;;23.67;64.02
37892;BME280;45797;47.466;9.486;2023-09-12T16:59:19;95531.25;;;23.59;64.33
37892;BME280;45797;47.466;9.486;2023-09-12T17:04:20;95542.50;;;23.55;64.49
37892;BME280;45797;47.466;9.486;2023-09-12T17:09:20;95542.03;;;23.45;64.84
37892;BME280;45797;47.466;9.486;2023-09-12T17:14:21;95576.13;;;23.36;65.00
37892;BME280;45797;47.466;9.486;2023-09-12T17:19:21;95576.41;;;23.20;65.08
37892;BME280;45797;47.466;9.486;2023-09-12T17:24:23;95572.19;;;23.04;65.93
37892;BME280;45797;47.466;9.486;2023-09-12T17:29:25;95576.50;;;22.84;66.39
37892;BME280;45797;47.466;9.486;2023-09-12T17:40:30;95592.50;;;22.41;67.04
37892;BME280;45797;47.466;9.486;2023-09-12T17:45:31;95595.19;;;22.26;67.49
37892;BME280;45797;47.466;9.486;2023-09-12T17:50:32;95584.19;;;22.14;67.67
37892;BME280;45797;47.466;9.486;2023-09-12T17:55:33;95588.97;;;22.04;67.94
37892;BME280;45797;47.466;9.486;2023-09-12T18:06:03;95603.16;;;21.90;68.38
37892;BME280;45797;47.466;9.486;2023-09-12T18:11:03;95608.59;;;21.82;68.75
37892;BME280;45797;47.466;9.486;2023-09-12T18:16:15;95613.91;;;21.82;68.61
37892;BME280;45797;47.466;9.486;2023-09-12T18:21:17;95626.44;;;21.81;67.58
37892;BME280;45797;47.466;9.486;2023-09-12T18:26:24;95612.25;;;21.81;67.68
37892;BME280;45797;47.466;9.486;2023-09-12T18:31:25;95610.22;;;21.83;67.69
37892;BME280;45797;47.466;9.486;2023-09-12T18:36:26;95617.66;;;21.87;67.87
37892;BME280;45797;47.466;9.486;2023-09-12T18:41:29;95609.13;;;21.92;66.91
37892;BME280;45797;47.466;9.486;2023-09-12T18:46:37;95603.41;;;21.95;66.86
37892;BME280;45797;47.466;9.486;2023-09-12T18:51:41;95609.66;;;22.02;66.92
37892;BME280;45797;47.466;9.486;2023-09-12T18:56:42;95605.28;;;22.09;66.38
37892;BME280;45797;47.466;9.486;2023-09-12T19:01:44;95600.47;;;22.19;65.22
37892;BME280;45797;47.466;9.486;2023-09-12T19:06:46;95581.94;;;22.33;65.19
37892;BME280;45797;47.466;9.486;2023-09-12T19:11:47;95563.72;;;22.36;65.77
37892;BME280;45797;47.466;9.486;2023-09-12T19:16:52;95534.06;;;22.31;65.46
37892;BME280;45797;47.466;9.486;2023-09-12T19:21:59;95508.78;;;22.27;65.88
37892;BME280;45797;47.466;9.486;2023-09-12T19:27:01;95505.41;;;22.18;66.21
37892;BME280;45797;47.466;9.486;2023-09-12T19:32:03;95505.88;;;22.07;66.67
37892;BME280;45797;47.466;9.486;2023-09-12T19:37:05;95534.25;;;22.08;65.67
37892;BME280;45797;47.466;9.486;2023-09-12T19:42:07;95545.38;;;22.12;65.83
37892;BME280;45797;47.466;9.486;2023-09-12T19:47:17;95560.91;;;21.93;66.35
37892;BME280;45797;47.466;9.486;2023-09-12T19:52:19;95570.88;;;21.85;66.29
37892;BME280;45797;47.466;9.486;2023-09-12T19:57:20;95574.09;;;21.80;66.70
37892;BME280;45797;47.466;9.486;2023-09-12T20:02:23;95560.66;;;21.74;66.88
37892;BME280;45797;47.466;9.486;2023-09-12T20:07:25;95574.38;;;21.71;66.77
37892;BME280;45797;47.466;9.486;2023-09-12T20:12:31;95571.06;;;21.68;67.14
37892;BME280;45797;47.466;9.486;2023-09-12T20:17:35;95567.38;;;21.70;67.08
37892;BME280;45797;47.466;9.486;2023-09-12T20:22:35;95581.25;;;21.65;67.27
37892;BME280;45797;47.466;9.486;2023-09-12T20:27:36;95587.16;;;21.60;67.57
37892;BME280;45797;47.466;9.486;2023-09-12T20:32:36;95597.53;;;21.55;67.55
37892;BME280;45797;47.466;9.486;2023-09-12T20:37:55;95612.91;;;21.53;67.57
37892;BME280;45797;47.466;9.486;2023-09-12T20:42:57;95604.91;;;21.53;67.87
37892;BME280;45797;47.466;9.486;2023-09-12T20:47:58;95608.41;;;21.54;68.38
37892;BME280;45797;47.466;9.486;2023-09-12T20:53:01;95613.72;;;21.54;68.16
37892;BME280;45797;47.466;9.486;2023-09-12T20:58:04;95619.59;;;21.49;68.55
37892;BME280;45797;47.466;9.486;2023-09-12T21:03:12;95640.47;;;21.46;68.72
37892;BME280;45797;47.466;9.486;2023-09-12T21:08:22;95659.50;;;21.43;68.67
37892;BME280;45797;47.466;9.486;2023-09-12T21:13:24;95664.97;;;21.41;68.68
37892;BME280;45797;47.466;9.486;2023-09-12T21:18:25;95672.34;;;21.39;68.31
37892;BME280;45797;47.466;9.486;2023-09-12T21:23:25;95689.97;;;21.40;68.29
37892;BME280;45797;47.466;9.486;2023-09-12T21:28:26;95689.97;;;21.40;68.50
37892;BME280;45797;47.466;9.486;2023-09-12T21:33:51;95701.00;;;21.37;68.62
37892;BME280;45797;47.466;9.486;2023-09-12T21:38:52;95721.69;;;21.35;68.55
37892;BME280;45797;47.466;9.486;2023-09-12T21:43:54;95735.19;;;21.33;69.24
37892;BME280;45797;47.466;9.486;2023-09-12T21:48:55;95729.38;;;21.30;68.85
37892;BME280;45797;47.466;9.486;2023-09-12T21:54:12;95732.41;;;21.27;68.38
37892;BME280;45797;47.466;9.486;2023-09-12T21:59:12;95740.88;;;21.30;68.78
37892;BME280;45797;47.466;9.486;2023-09-12T22:04:18;95735.19;;;21.33;67.95
37892;BME280;45797;47.466;9.486;2023-09-12T22:09:20;95734.28;;;21.41;67.90
37892;BME280;45797;47.466;9.486;2023-09-12T22:14:37;95741.56;;;21.47;67.62
37892;BME280;45797;47.466;9.486;2023-09-12T22:19:44;95729.47;;;21.59;67.41
37892;BME280;45797;47.466;9.486;2023-09-12T22:24:52;95745.50;;;21.74;66.73
37892;BME280;45797;47.466;9.486;2023-09-12T22:29:53;95743.53;;;21.91;66.29
37892;BME280;45797;47.466;9.486;2023-09-12T22:34:53;95738.56;;;22.03;66.13
37892;BME280;45797;47.466;9.486;2023-09-12T22:39:54;95731.53;;;22.10;65.72
37892;BME280;45797;47.466;9.486;2023-09-12T22:44:55;95738.44;;;22.19;65.15
37892;BME280;45797;47.466;9.486;2023-09-12T22:49:56;95738.50;;;22.26;64.68
37892;BME280;45797;47.466;9.486;2023-09-12T22:54:59;95744.13;;;22.31;64.64
37892;BME280;45797;47.466;9.486;2023-09-12T23:00:00;95741.91;;;22.34;64.94
37892;BME280;45797;47.466;9.486;2023-09-12T23:05:03;95738.88;;;22.37;65.23
37892;BME280;45797;47.466;9.486;2023-09-12T23:10:04;95743.66;;;22.42;64.85
37892;BME280;45797;47.466;9.486;2023-09-12T23:15:04;95743.47;;;22.43;64.35
37892;BME280;45797;47.466;9.486;2023-09-12T23:20:05;95748.06;;;22.49;64.55
37892;BME280;45797;47.466;9.486;2023-09-12T23:25:16;95748.91;;;22.50;63.90
37892;BME280;45797;47.466;9.486;2023-09-12T23:30:16;95751.56;;;22.50;64.65
37892;BME280;45797;47.466;9.486;2023-09-12T23:35:17;95757.09;;;22.48;63.96
37892;BME280;45797;47.466;9.486;2023-09-12T23:40:21;95748.06;;;22.49;64.60
37892;BME280;45797;47.466;9.486;2023-09-12T23:45:23;95763.28;;;22.49;64.45
37892;BME280;45797;47.466;9.486;2023-09-12T23:50:28;95776.00;;;22.47;64.85
37892;BME280;45797;47.466;9.486;2023-09-12T23:55:34;95778.19;;;22.43;65.41
